Thai Dawn — V7EO6 — position and weather

sailwx.info

Track history (hours):
 
Tides and Currents Weather Stations Pressure Air Temp Water Temp Dewpoint Dewpoint Depression Visibility Wind Speed Wind Dir Waves Ship Positions

Thai Dawn

Last reported at 2014-Oct-26 18:28 UTC. Time now 2014-Nov-01 01:16 UTC.
Position N 01°16' E 104°16'.

Length 169 m; draft 10.6 m.

Type: Cargo ship. MMSI: 538001841.

Date/timePositionNaut miles runAvg speedWind from/ knotsBaromVisibWave heightAir tempDewpointWater temp
2014-Oct-26 18:28N 01°16' E 104°16'1112.1
2014-Oct-26 17:33N 01°15' E 104°05'10 9.7
2014-Oct-26 16:33N 01°16' E 103°56'2 2.0
2014-Oct-26 15:19N 01°16' E 103°53'0 0.0
2014-Oct-26 14:04N 01°16' E 103°53'0 0.0
2014-Oct-26 13:22N 01°16' E 103°53'0 0.0
2014-Oct-26 12:28N 01°16' E 103°53'0 0.0
2014-Oct-26 11:16N 01°16' E 103°53'0 0.1
2014-Oct-26 10:32N 01°16' E 103°53'0 0.1
2014-Oct-26 09:33N 01°16' E 103°53'0 0.0
2014-Oct-26 08:33N 01°16' E 103°53'2 2.0
2014-Oct-26 07:33N 01°15' E 103°54'5 4.9
2014-Oct-26 06:32N 01°16' E 103°59'7 6.8
2014-Oct-26 05:33N 01°17' E 104°06'  
Track history (hours):
 
Tides and Currents Weather Stations Pressure Air Temp Water Temp Dewpoint Dewpoint Depression Visibility Wind Speed Wind Dir Waves Ship Positions

Thai Dawn

Last reported at 2014-Oct-26 18:28 UTC. Time now 2014-Nov-01 01:16 UTC.
Position N 01°16' E 104°16'.

Length 169 m; draft 10.6 m.

Type: Cargo ship. MMSI: 538001841.

Date/timePositionNaut miles runAvg speedWind from/ knotsBaromVisibWave heightAir tempDewpointWater temp
2014-Oct-26 18:28N 01°16' E 104°16'1112.1
2014-Oct-26 17:33N 01°15' E 104°05'10 9.7
2014-Oct-26 16:33N 01°16' E 103°56'2 2.0
2014-Oct-26 15:19N 01°16' E 103°53'0 0.0
2014-Oct-26 14:04N 01°16' E 103°53'0 0.0
2014-Oct-26 13:22N 01°16' E 103°53'0 0.0
2014-Oct-26 12:28N 01°16' E 103°53'0 0.0
2014-Oct-26 11:16N 01°16' E 103°53'0 0.1
2014-Oct-26 10:32N 01°16' E 103°53'0 0.1
2014-Oct-26 09:33N 01°16' E 103°53'0 0.0
2014-Oct-26 08:33N 01°16' E 103°53'2 2.0
2014-Oct-26 07:33N 01°15' E 103°54'5 4.9
2014-Oct-26 06:32N 01°16' E 103°59'7 6.8
2014-Oct-26 05:33N 01°17' E 104°06'  

Dump ship's entire track history